Time;durP1;ratioP1;P1;durP2;ratioP2;P2;SDS_P1;SDS_P2;PMS_P1;PMS_P2;Temp;Humidity;BMP_temperature;BMP_pressure;BME280_temperature;BME280_humidity;BME280_pressure;Samples;Min_cycle;Max_cycle;Signal;HPM_P1;HPM_P2
2022/09/05 00:03:56;;;;;;;9.45;5.43;;;;;;;15.54;100.00;101739.97;4935598;28;20527;-76
2022/09/05 00:10:02;;;;;;;13.25;6.13;;;;;;;15.59;100.00;101725.84;4974546;28;20050;-75
2022/09/05 00:12:31;;;;;;;12.82;6.40;;;;;;;15.51;100.00;101729.63;4974249;28;20031;-75
2022/09/05 00:15:14;;;;;;;12.05;5.50;;;;;;;15.37;100.00;101726.28;4973304;28;20162;-75
2022/09/05 00:17:43;;;;;;;9.48;5.13;;;;;;;15.29;100.00;101731.09;4974258;28;20023;-75
2022/09/05 00:20:18;;;;;;;10.32;5.45;;;;;;;15.29;100.00;101728.41;4973954;28;20057;-75
2022/09/05 00:26:40;;;;;;;7.28;5.45;;;;;;;15.10;100.00;101730.28;4974301;28;20096;-74
2022/09/05 00:29:20;;;;;;;7.97;6.10;;;;;;;15.12;100.00;101729.00;4969248;28;20047;-74
2022/09/05 00:32:05;;;;;;;7.55;5.32;;;;;;;15.08;100.00;101733.19;4973232;28;20126;-75
2022/09/05 00:34:55;;;;;;;6.88;5.35;;;;;;;15.10;100.00;101732.97;4968751;28;20066;-76
2022/09/05 00:37:32;;;;;;;9.75;5.88;;;;;;;15.12;100.00;101733.56;4974218;28;20093;-76
2022/09/05 00:40:39;;;;;;;11.45;6.05;;;;;;;15.09;100.00;101728.63;4973402;28;20142;-76
2022/09/05 00:43:09;;;;;;;9.65;5.40;;;;;;;15.02;100.00;101717.06;4972078;28;20082;-76
2022/09/05 00:45:41;;;;;;;9.15;6.10;;;;;;;15.08;100.00;101721.59;4972267;28;20118;-76
2022/09/05 00:48:18;;;;;;;8.45;5.38;;;;;;;14.95;100.00;101717.16;4974014;28;20126;-77
2022/09/05 00:51:20;;;;;;;9.25;6.63;;;;;;;14.96;100.00;101717.97;4973978;28;20463;-76
2022/09/05 00:54:00;;;;;;;9.60;5.50;;;;;;;14.94;100.00;101720.88;4968570;28;20061;-75
2022/09/05 01:00:15;;;;;;;10.52;6.28;;;;;;;14.88;100.00;101721.78;4973723;28;20055;-75
2022/09/05 01:02:43;;;;;;;12.18;7.38;;;;;;;14.80;100.00;101720.19;4973665;28;20046;-76
2022/09/05 01:08:40;;;;;;;10.57;6.80;;;;;;;14.68;100.00;101715.72;4973850;28;20048;-76
2022/09/05 01:11:31;;;;;;;13.25;7.03;;;;;;;14.65;100.00;101717.00;4968783;28;20043;-76
2022/09/05 01:14:34;;;;;;;11.02;6.45;;;;;;;14.68;100.00;101718.41;4973572;28;20483;-76
2022/09/05 01:17:10;;;;;;;12.97;6.57;;;;;;;14.61;100.00;101723.84;4971804;28;20487;-77
2022/09/05 01:20:01;;;;;;;11.07;6.90;;;;;;;14.57;100.00;101718.09;4972076;28;20117;-76
2022/09/05 01:22:39;;;;;;;9.40;6.10;;;;;;;14.56;100.00;101723.69;4971920;28;20427;-77
2022/09/05 01:25:29;;;;;;;10.85;6.03;;;;;;;14.53;100.00;101724.97;4972390;28;20062;-76
2022/09/05 01:28:04;;;;;;;12.20;6.47;;;;;;;14.50;100.00;101713.81;4973273;28;20034;-76
2022/09/05 01:30:36;;;;;;;10.85;6.80;;;;;;;14.55;100.00;101720.19;4972315;28;20467;-76
2022/09/05 01:33:20;;;;;;;12.77;8.05;;;;;;;14.58;100.00;101724.31;4973096;28;20034;-75
2022/09/05 01:36:09;;;;;;;13.05;7.68;;;;;;;14.60;100.00;101713.31;4973090;28;20034;-76
2022/09/05 01:38:50;;;;;;;10.73;7.60;;;;;;;14.58;100.00;101713.53;4971451;28;20549;-77
2022/09/05 01:41:27;;;;;;;12.05;7.70;;;;;;;14.57;100.00;101715.41;4973037;28;20072;-76
2022/09/05 01:44:18;;;;;;;9.63;7.68;;;;;;;14.56;100.00;101721.81;4967762;28;20407;-76
2022/09/05 01:50:24;;;;;;;9.95;7.53;;;;;;;14.52;100.00;101717.94;4973426;28;20137;-77
2022/09/05 01:53:06;;;;;;;10.20;7.20;;;;;;;14.43;100.00;101711.16;4971765;28;20027;-75
2022/09/05 01:56:01;;;;;;;11.00;7.28;;;;;;;14.42;100.00;101712.16;4972348;28;20054;-76
2022/09/05 01:58:50;;;;;;;14.13;8.73;;;;;;;14.45;100.00;101719.81;4971605;28;20026;-77
2022/09/05 02:01:43;;;;;;;10.30;7.45;;;;;;;14.43;100.00;101719.22;4971624;28;20439;-76
2022/09/05 02:14:26;;;;;;;13.27;8.63;;;;;;;14.42;100.00;101709.47;4972796;28;20077;-77
2022/09/05 02:16:54;;;;;;;15.13;8.40;;;;;;;14.35;100.00;101716.75;4972577;28;20513;-77
2022/09/05 02:19:30;;;;;;;16.85;9.55;;;;;;;14.33;100.00;101718.84;4972562;28;20089;-76
2022/09/05 02:22:09;;;;;;;13.38;8.63;;;;;;;14.33;100.00;101723.41;4971770;28;20391;-76
2022/09/05 02:24:41;;;;;;;19.25;10.30;;;;;;;14.29;100.00;101714.94;4972472;28;20042;-77
2022/09/05 02:27:22;;;;;;;12.52;8.65;;;;;;;14.31;100.00;101720.94;4968366;28;20089;-76
2022/09/05 02:33:28;;;;;;;11.65;7.45;;;;;;;14.29;100.00;101727.56;4975451;28;20514;-77
2022/09/05 02:36:21;;;;;;;18.60;12.13;;;;;;;14.33;100.00;101728.78;4975900;28;20031;-76
2022/09/05 02:42:18;;;;;;;14.88;9.10;;;;;;;14.20;100.00;101724.34;4975838;28;20070;-76
2022/09/05 02:45:09;;;;;;;16.63;10.45;;;;;;;14.26;100.00;101731.53;4974156;28;20030;-76
2022/09/05 02:51:08;;;;;;;23.38;12.27;;;;;;;14.26;100.00;101731.53;4975900;28;20045;-78
2022/09/05 02:53:38;;;;;;;17.67;11.38;;;;;;;14.20;100.00;101727.84;4974763;28;20042;-76
2022/09/05 02:59:49;;;;;;;19.88;11.25;;;;;;;14.20;100.00;101730.53;4978488;28;20403;-78
2022/09/05 03:02:33;;;;;;;14.88;10.38;;;;;;;14.15;100.00;101716.06;4975180;28;20045;-76
2022/09/05 03:05:18;;;;;;;27.75;15.15;;;;;;;14.19;100.00;101723.50;4974491;28;20131;-77
2022/09/05 03:11:43;;;;;;;21.30;12.55;;;;;;;14.24;100.00;101728.22;4975637;28;20097;-77
2022/09/05 03:14:21;;;;;;;23.00;12.82;;;;;;;14.19;100.00;101728.06;4975208;28;20506;-76
2022/09/05 03:17:14;;;;;;;19.13;11.68;;;;;;;14.08;100.00;101723.34;4973088;28;20027;-76
2022/09/05 03:19:45;;;;;;;21.65;13.50;;;;;;;14.07;100.00;101730.59;4974977;28;20391;-75
2022/09/05 03:22:48;;;;;;;18.42;11.40;;;;;;;14.02;100.00;101729.59;4973715;28;20047;-75
2022/09/05 03:25:32;;;;;;;20.55;13.63;;;;;;;13.98;100.00;101726.50;4974341;28;20046;-75
2022/09/05 03:31:46;;;;;;;17.40;12.32;;;;;;;13.90;100.00;101718.69;4975283;28;20506;-76
2022/09/05 03:38:09;;;;;;;17.95;11.57;;;;;;;13.97;100.00;101719.47;4974809;28;20324;-76
2022/09/05 03:40:49;;;;;;;19.13;12.80;;;;;;;13.89;100.00;101725.94;4974024;28;20082;-76
2022/09/05 03:46:53;;;;;;;25.40;15.18;;;;;;;13.82;100.00;101716.22;4974915;28;20045;-76
2022/09/05 03:53:13;;;;;;;25.25;14.10;;;;;;;13.71;100.00;101722.28;4974758;28;20042;-75
2022/09/05 03:59:45;;;;;;;20.08;13.43;;;;;;;13.67;100.00;101727.28;4974789;28;20042;-76
2022/09/05 04:02:16;;;;;;;26.83;16.85;;;;;;;13.59;100.00;101716.78;4942212;28;20043;-76
2022/09/05 04:08:14;;;;;;;29.52;15.13;;;;;;;13.52;100.00;101722.13;4974785;28;20593;-76
2022/09/05 04:10:51;;;;;;;23.08;15.65;;;;;;;13.53;100.00;101720.28;4974757;28;20070;-75
2022/09/05 04:13:30;;;;;;;28.48;16.77;;;;;;;13.54;100.00;101725.44;4969019;28;20129;-76
2022/09/05 04:16:01;;;;;;;23.90;13.70;;;;;;;13.58;100.00;101723.16;4974322;28;20038;-76
2022/09/05 04:22:19;;;;;;;25.52;14.93;;;;;;;13.32;100.00;101732.13;4974474;28;20045;-77
2022/09/05 04:25:14;;;;;;;24.20;14.95;;;;;;;13.28;100.00;101723.66;4973556;28;20047;-76
2022/09/05 04:27:51;;;;;;;26.60;15.50;;;;;;;13.34;100.00;101738.13;4972975;28;20420;-76
2022/09/05 04:30:46;;;;;;;25.52;16.05;;;;;;;13.29;100.00;101722.59;4974074;28;20085;-76
2022/09/05 04:33:22;;;;;;;27.83;16.35;;;;;;;13.26;100.00;101728.41;4973354;28;20072;-75
2022/09/05 04:36:12;;;;;;;30.30;16.15;;;;;;;13.26;100.00;101733.78;4972697;28;20023;-76
2022/09/05 04:38:41;;;;;;;30.60;16.75;;;;;;;13.19;100.00;101735.66;4973093;28;20054;-76
2022/09/05 04:41:12;;;;;;;29.05;16.48;;;;;;;13.19;100.00;101735.66;4973855;28;20034;-75
2022/09/05 04:43:49;;;;;;;26.17;16.75;;;;;;;13.18;100.00;101742.06;4973078;28;20055;-76
2022/09/05 04:49:40;;;;;;;25.50;16.30;;;;;;;13.18;100.00;101739.38;4973707;28;20122;-77
2022/09/05 04:52:14;;;;;;;33.97;19.33;;;;;;;13.22;100.00;101748.66;4972622;28;20031;-77
2022/09/05 04:54:48;;;;;;;32.22;17.38;;;;;;;13.27;100.00;101735.44;4973666;28;20077;-77
2022/09/05 05:00:41;;;;;;;31.38;17.85;;;;;;;13.27;100.00;101730.06;4973712;28;20134;-75
2022/09/05 05:03:13;;;;;;;25.70;14.82;;;;;;;13.23;100.00;101741.44;4968460;28;20050;-77
2022/09/05 05:09:17;;;;;;;28.67;16.13;;;;;;;13.20;100.00;101764.16;4973831;28;20093;-77
2022/09/05 05:15:11;;;;;;;26.83;15.82;;;;;;;13.38;100.00;101758.16;4973782;28;20049;-76
2022/09/05 05:21:01;;;;;;;29.15;16.02;;;;;;;13.86;100.00;101760.47;4973502;28;20062;-76
2022/09/05 05:27:14;;;;;;;32.05;15.85;;;;;;;14.39;100.00;101762.91;4973405;28;20074;-73
2022/09/05 05:33:22;;;;;;;30.13;17.05;;;;;;;15.16;100.00;101750.94;4973494;28;20189;-72
2022/09/05 05:39:15;;;;;;;29.60;17.38;;;;;;;16.55;98.01;101760.06;4973243;28;20134;-73
2022/09/05 05:45:03;;;;;;;33.40;17.80;;;;;;;17.75;92.44;101756.94;4973287;28;20611;-73
2022/09/05 05:51:24;;;;;;;32.80;16.85;;;;;;;19.07;88.48;101765.56;4973251;28;20089;-72
2022/09/05 05:54:25;;;;;;;28.35;16.90;;;;;;;19.83;86.59;101760.41;4972869;28;20427;-73
2022/09/05 05:57:19;;;;;;;24.92;17.40;;;;;;;20.64;80.38;101769.44;4953205;28;20047;-74
2022/09/05 06:03:12;;;;;;;25.60;16.98;;;;;;;21.92;72.83;101780.06;4973317;28;20038;-73
2022/09/05 06:09:20;;;;;;;39.00;18.75;;;;;;;22.80;67.88;101779.16;4976325;28;20545;-75
2022/09/05 06:12:23;;;;;;;29.25;17.60;;;;;;;23.15;70.03;101775.66;4975068;28;20089;-71
2022/09/05 06:18:43;;;;;;;39.75;18.42;;;;;;;23.83;65.78;101791.59;4976225;28;20081;-71
2022/09/05 06:21:40;;;;;;;29.05;18.23;;;;;;;24.23;64.16;101785.91;4970506;28;20043;-71
2022/09/05 06:24:31;;;;;;;30.65;18.02;;;;;;;24.69;61.07;101796.56;4974585;28;20070;-72
2022/09/05 06:27:24;;;;;;;27.98;18.35;;;;;;;24.95;59.77;101797.19;4974900;28;20131;-72
2022/09/05 06:30:07;;;;;;;26.35;18.98;;;;;;;25.28;58.42;101796.34;4974544;28;20062;-72
2022/09/05 06:33:00;;;;;;;26.90;18.73;;;;;;;25.56;57.24;101793.84;4974947;28;20078;-72
2022/09/05 06:42:37;;;;;;;24.15;19.10;;;;;;;26.26;53.74;101791.31;4976194;28;20093;-72
2022/09/05 06:48:40;;;;;;;27.77;19.02;;;;;;;26.88;50.13;101799.44;4975522;28;20050;-73
2022/09/05 06:51:36;;;;;;;31.70;19.20;;;;;;;27.05;51.12;101786.00;4974839;28;20042;-72
2022/09/05 06:54:22;;;;;;;28.95;18.42;;;;;;;27.18;48.07;101785.22;4975472;28;20066;-72
2022/09/05 06:57:18;;;;;;;27.38;18.85;;;;;;;27.47;48.79;101787.69;4974566;28;20035;-72
2022/09/05 07:00:19;;;;;;;28.67;18.48;;;;;;;27.66;48.01;101787.59;4975074;28;20046;-72
2022/09/05 07:03:12;;;;;;;29.92;17.75;;;;;;;28.03;47.15;101786.53;4974652;28;20163;-73
2022/09/05 07:09:11;;;;;;;26.02;17.67;;;;;;;28.50;44.28;101793.47;4975304;28;20049;-72
2022/09/05 07:21:02;;;;;;;24.33;15.80;;;;;;;28.96;42.21;101806.13;4974662;28;20073;-72
2022/09/05 07:26:53;;;;;;;26.67;14.13;;;;;;;29.33;41.14;101799.38;4974843;28;20045;-73
2022/09/05 07:29:28;;;;;;;18.73;12.80;;;;;;;29.46;40.22;101797.66;4973217;28;20394;-72
2022/09/05 07:31:55;;;;;;;22.40;13.60;;;;;;;29.78;39.85;101800.06;4977380;28;20038;-74
2022/09/05 07:34:25;;;;;;;20.33;12.65;;;;;;;30.37;38.88;101805.19;4974499;28;20022;-75
2022/09/05 07:40:22;;;;;;;23.13;11.93;;;;;;;31.39;38.81;101808.94;4974261;28;20085;-73
2022/09/05 07:43:23;;;;;;;23.23;12.43;;;;;;;31.89;38.56;101815.72;4977207;28;20626;-74
2022/09/05 07:46:05;;;;;;;17.55;10.88;;;;;;;32.32;36.60;101821.78;4958183;28;20051;-73
2022/09/05 07:48:34;;;;;;;16.92;9.75;;;;;;;32.30;35.19;101823.25;4972590;28;20043;-75
2022/09/05 07:51:03;;;;;;;13.20;9.20;;;;;;;32.42;33.83;101817.00;4974315;28;20066;-75
2022/09/05 07:53:30;;;;;;;14.68;8.93;;;;;;;33.13;32.89;101814.84;4976897;28;20148;-73
2022/09/05 07:59:18;;;;;;;13.18;8.30;;;;;;;34.49;30.56;101811.66;4974123;28;20089;-73
2022/09/05 08:01:47;;;;;;;24.23;8.38;;;;;;;34.99;30.18;101830.56;4974044;28;20034;-73
2022/09/05 08:07:38;;;;;;;16.03;7.77;;;;;;;36.01;28.08;101822.38;4974159;28;20061;-72
2022/09/05 08:10:21;;;;;;;18.08;7.35;;;;;;;36.08;29.09;101818.94;4973845;28;20058;-73
2022/09/05 08:13:05;;;;;;;17.08;7.50;;;;;;;35.68;28.26;101820.00;4974444;28;20043;-73
2022/09/05 08:19:12;;;;;;;23.58;6.80;;;;;;;35.39;28.90;101819.31;4954610;29;20455;-76
2022/09/05 08:25:02;;;;;;;20.92;7.50;;;;;;;35.77;26.78;101826.16;4954701;28;20098;-74
2022/09/05 08:27:39;;;;;;;13.48;6.47;;;;;;;35.78;27.77;101819.44;4954961;28;20042;-74
2022/09/05 08:30:09;;;;;;;13.82;6.60;;;;;;;35.70;26.87;101821.25;4954457;28;20430;-74
2022/09/05 08:36:03;;;;;;;13.38;6.78;;;;;;;35.93;27.42;101824.19;4954707;28;20110;-73
2022/09/05 08:38:33;;;;;;;18.20;7.15;;;;;;;36.15;26.65;101822.69;4954130;28;20019;-74
2022/09/05 08:41:12;;;;;;;15.60;6.60;;;;;;;36.57;26.48;101819.19;4955437;28;20411;-73
2022/09/05 08:43:50;;;;;;;10.32;6.53;;;;;;;36.95;25.54;101828.72;4952930;29;20431;-73
2022/09/05 08:46:21;;;;;;;15.65;6.72;;;;;;;37.16;25.98;101824.31;4952358;29;20431;-73
2022/09/05 08:49:01;;;;;;;18.88;6.93;;;;;;;36.58;26.55;101821.63;4952804;29;20498;-73
2022/09/05 08:51:31;;;;;;;13.80;6.13;;;;;;;35.39;27.33;101816.53;4956869;28;20051;-74
2022/09/05 08:54:15;;;;;;;16.52;6.30;;;;;;;35.04;28.76;101812.81;4952718;29;20023;-72
2022/09/05 08:56:59;;;;;;;13.48;6.20;;;;;;;34.67;29.66;101820.50;4956832;28;20079;-73
2022/09/05 08:59:42;;;;;;;14.25;6.63;;;;;;;34.38;27.87;101807.75;4952507;29;20019;-74
2022/09/05 09:02:35;;;;;;;13.60;6.13;;;;;;;34.95;27.42;101804.63;4956768;28;20214;-72
2022/09/05 09:05:20;;;;;;;9.45;5.97;;;;;;;34.42;28.70;101803.94;4953841;28;20094;-72
2022/09/05 09:07:55;;;;;;;13.35;6.53;;;;;;;32.69;29.36;101799.00;4956709;28;20047;-75
2022/09/05 09:10:23;;;;;;;9.50;5.28;;;;;;;31.62;33.21;101801.19;4953863;28;20027;-73
2022/09/05 09:13:06;;;;;;;11.73;6.47;;;;;;;31.29;33.83;101798.25;4954569;28;20551;-73
2022/09/05 09:18:52;;;;;;;16.13;5.72;;;;;;;30.35;35.95;101797.22;4956818;28;20444;-72
2022/09/05 09:21:23;;;;;;;12.23;5.37;;;;;;;29.88;36.10;101793.41;4953716;28;20031;-74
2022/09/05 09:23:59;;;;;;;13.10;5.60;;;;;;;29.50;36.40;101790.41;4953674;28;20097;-73
2022/09/05 09:26:46;;;;;;;11.65;5.15;;;;;;;28.97;36.90;101785.72;4956264;28;20066;-74
2022/09/05 09:29:16;;;;;;;12.27;5.80;;;;;;;28.60;37.03;101786.88;4952082;29;20041;-74
2022/09/05 09:35:34;;;;;;;8.65;4.88;;;;;;;28.21;38.36;101768.25;4953607;28;20078;-74
2022/09/05 09:38:23;;;;;;;10.68;5.78;;;;;;;28.26;37.93;101777.25;4952939;28;20054;-74
2022/09/05 09:40:49;;;;;;;11.10;4.55;;;;;;;28.51;36.03;101778.56;4956639;29;20038;-72
2022/09/05 09:43:24;;;;;;;10.27;4.17;;;;;;;28.58;35.48;101778.94;4954927;29;20395;-72
2022/09/05 09:46:01;;;;;;;7.13;4.47;;;;;;;28.44;36.16;101775.47;4956951;28;20102;-74
2022/09/05 09:48:46;;;;;;;12.27;4.32;;;;;;;28.48;36.91;101767.38;4959435;28;20046;-74
2022/09/05 09:51:16;;;;;;;8.00;4.60;;;;;;;28.61;35.80;101767.31;4956637;28;20615;-74
2022/09/05 09:54:15;;;;;;;7.65;4.57;;;;;;;28.76;35.36;101777.13;4959410;28;20718;-73
2022/09/05 09:57:17;;;;;;;10.80;5.00;;;;;;;28.85;36.15;101774.47;4956797;29;20051;-74
2022/09/05 09:59:58;;;;;;;10.38;4.60;;;;;;;28.64;36.20;101760.41;4954649;29;20043;-74
2022/09/05 10:02:33;;;;;;;13.73;5.30;;;;;;;28.75;35.47;101767.25;4955119;29;20094;-73
2022/09/05 10:05:30;;;;;;;11.27;5.18;;;;;;;28.85;35.89;101764.25;4959239;28;20422;-71
2022/09/05 10:08:11;;;;;;;15.02;4.93;;;;;;;28.95;36.46;101754.94;4956233;28;20039;-73
2022/09/05 10:11:15;;;;;;;9.80;5.15;;;;;;;29.23;35.62;101755.56;4959290;28;20050;-72
2022/09/05 10:14:32;;;;;;;8.07;4.65;;;;;;;29.09;35.29;101758.41;4934810;29;20041;-72
2022/09/05 10:17:33;;;;;;;11.98;4.70;;;;;;;29.01;35.73;101748.16;4901803;29;20082;-74
2022/09/05 10:20:26;;;;;;;7.95;4.35;;;;;;;28.95;35.01;101735.66;4956098;28;20118;-72
2022/09/05 10:23:24;;;;;;;9.32;4.82;;;;;;;28.95;35.34;101741.16;4959089;28;20050;-71
2022/09/05 10:26:20;;;;;;;12.20;5.07;;;;;;;28.86;35.68;101740.28;4956141;28;20042;-74
2022/09/05 10:32:22;;;;;;;6.10;4.03;;;;;;;28.91;34.46;101737.41;4956256;29;20053;-75
2022/09/05 10:34:58;;;;;;;11.48;4.70;;;;;;;28.76;33.80;101741.34;4958861;28;20403;-74
2022/09/05 10:37:40;;;;;;;7.10;3.60;;;;;;;28.88;34.56;101736.09;4955919;28;20062;-72
2022/09/05 10:40:10;;;;;;;10.27;3.67;;;;;;;29.03;32.37;101734.06;4958725;28;20046;-72
2022/09/05 10:42:42;;;;;;;8.18;3.80;;;;;;;29.11;32.56;101734.09;4955880;28;20036;-73
2022/09/05 10:45:25;;;;;;;8.68;4.30;;;;;;;29.05;33.21;101721.59;4954049;29;20039;-74
2022/09/05 10:48:12;;;;;;;7.50;4.00;;;;;;;28.84;32.73;101732.31;4955920;28;20027;-75
2022/09/05 10:50:43;;;;;;;8.00;4.07;;;;;;;28.88;34.54;101733.34;4958700;28;20071;-72
2022/09/05 10:53:58;;;;;;;7.57;3.42;;;;;;;29.07;32.98;101726.78;4955802;28;20038;-74
2022/09/05 10:56:29;;;;;;;6.13;3.72;;;;;;;29.08;32.95;101731.97;4933758;29;20062;-74
2022/09/05 10:59:00;;;;;;;8.38;3.55;;;;;;;29.16;32.68;101725.69;4947559;29;20040;-74
2022/09/05 11:01:50;;;;;;;6.95;4.00;;;;;;;29.16;32.47;101717.44;4954750;28;20482;-74
2022/09/05 11:04:57;;;;;;;10.55;4.00;;;;;;;29.55;32.48;101721.31;4954331;28;20454;-75
2022/09/05 11:07:34;;;;;;;7.10;4.25;;;;;;;29.44;31.44;101714.44;4957318;28;20035;-74
2022/09/05 11:13:35;;;;;;;78.53;7.55;;;;;;;29.42;32.81;101706.50;4954862;28;20041;-73
2022/09/05 11:16:17;;;;;;;21.30;4.22;;;;;;;29.36;33.19;101702.25;4955483;28;20020;-74
2022/09/05 11:18:58;;;;;;;153.13;10.45;;;;;;;29.47;33.42;101711.06;4956476;28;20212;-75
2022/09/05 11:21:49;;;;;;;7.05;4.22;;;;;;;29.46;32.40;101701.19;4955452;28;20065;-73
2022/09/05 11:24:43;;;;;;;12.17;4.13;;;;;;;29.29;32.86;101699.97;4955465;28;20031;-73
2022/09/05 11:27:26;;;;;;;12.73;4.32;;;;;;;29.30;32.64;101695.28;4955240;28;20129;-73
2022/09/05 11:30:12;;;;;;;11.38;3.97;;;;;;;29.39;32.87;101695.28;4955271;28;20483;-72
2022/09/05 11:36:30;;;;;;;10.75;4.07;;;;;;;29.15;33.01;101699.28;4957475;28;20089;-74
2022/09/05 11:39:14;;;;;;;9.70;4.40;;;;;;;29.04;33.33;101686.94;4968896;28;20035;-73
2022/09/05 11:42:17;;;;;;;11.00;4.60;;;;;;;29.06;33.67;101692.94;4956641;28;20031;-74
2022/09/05 11:45:01;;;;;;;9.50;4.28;;;;;;;29.17;33.59;101690.69;4953662;29;20380;-72
2022/09/05 11:51:22;;;;;;;8.90;4.18;;;;;;;29.44;33.19;101692.38;4955209;29;20602;-73
2022/09/05 11:54:02;;;;;;;12.52;4.35;;;;;;;29.61;33.73;101700.72;4957626;28;20097;-75
2022/09/05 11:57:02;;;;;;;8.63;4.43;;;;;;;29.53;33.02;101694.06;4954933;28;20503;-72
2022/09/05 11:59:28;;;;;;;11.15;4.22;;;;;;;29.54;32.94;101695.69;4952868;29;20050;-74
2022/09/05 12:02:15;;;;;;;8.73;3.90;;;;;;;29.49;32.95;101686.75;4953004;28;20051;-72
2022/09/05 12:04:46;;;;;;;6.35;4.40;;;;;;;29.59;33.03;101680.94;4955394;28;20051;-73
2022/09/05 12:07:30;;;;;;;8.65;4.82;;;;;;;29.70;32.74;101685.00;4953342;29;20094;-73
2022/09/05 12:10:13;;;;;;;12.48;4.70;;;;;;;29.70;32.03;101686.94;4953525;28;20045;-73
2022/09/05 12:13:08;;;;;;;14.93;4.35;;;;;;;29.64;32.80;101680.78;4953240;29;20070;-74
2022/09/05 12:15:36;;;;;;;8.13;4.20;;;;;;;29.68;32.34;101670.72;4954557;28;20053;-73
2022/09/05 12:18:10;;;;;;;8.18;4.10;;;;;;;29.86;31.53;101663.28;4956274;28;20054;-73
2022/09/05 12:21:13;;;;;;;11.52;4.68;;;;;;;29.92;32.25;101673.81;4954400;28;20038;-72
2022/09/05 12:23:48;;;;;;;;;;;;;;;30.06;32.49;101664.59;4953142;29;20043;-73
2022/09/05 12:26:39;;;;;;;17.70;4.30;;;;;;;30.31;32.24;101660.19;4954408;29;19914;-73
2022/09/05 12:29:19;;;;;;;7.88;4.20;;;;;;;30.85;31.51;101655.03;4957212;28;20194;-74
2022/09/05 12:31:49;;;;;;;14.57;4.00;;;;;;;31.79;28.82;101658.38;4954190;28;20023;-73
2022/09/05 12:34:37;;;;;;;12.35;4.13;;;;;;;31.61;29.87;101652.97;4952457;28;20534;-71
2022/09/05 12:37:09;;;;;;;9.25;4.50;;;;;;;31.53;29.62;101659.38;4954127;28;20506;-73
2022/09/05 12:39:45;;;;;;;9.25;4.05;;;;;;;32.26;29.78;101654.25;4956987;28;20043;-74
2022/09/05 12:42:20;;;;;;;8.77;4.78;;;;;;;33.77;26.76;101653.22;4954135;28;20035;-74
2022/09/05 12:45:08;;;;;;;8.82;4.43;;;;;;;34.64;25.67;101657.25;4954653;28;20054;-73
2022/09/05 12:51:06;;;;;;;6.45;4.05;;;;;;;34.17;26.07;101656.00;4956960;28;20094;-74
2022/09/05 12:53:41;;;;;;;11.02;4.53;;;;;;;32.87;27.35;101646.06;4952773;29;20573;-74
2022/09/05 12:56:18;;;;;;;8.93;4.22;;;;;;;32.39;28.15;101646.00;4955143;28;20053;-73
2022/09/05 12:58:49;;;;;;;8.63;4.65;;;;;;;33.00;27.81;101646.88;4953813;28;20031;-74
2022/09/05 13:01:17;;;;;;;9.38;4.72;;;;;;;34.47;25.40;101648.09;4953916;28;20031;-73
2022/09/05 13:03:59;;;;;;;8.65;4.40;;;;;;;35.88;24.17;101646.28;4956769;28;20043;-73
2022/09/05 13:09:58;;;;;;;9.00;4.15;;;;;;;35.00;24.19;101640.31;4954046;29;20547;-73
2022/09/05 13:12:35;;;;;;;6.00;3.90;;;;;;;34.91;24.94;101631.34;4952153;29;20039;-73
2022/09/05 13:15:34;;;;;;;7.95;4.15;;;;;;;35.02;24.06;101628.84;4951519;29;20043;-73
2022/09/05 13:18:12;;;;;;;6.28;4.00;;;;;;;34.41;24.46;101632.06;4952457;29;20019;-72
2022/09/05 13:20:47;;;;;;;8.73;4.75;;;;;;;33.92;25.22;101628.72;4951809;29;20596;-73
2022/09/05 13:23:36;;;;;;;9.20;4.55;;;;;;;34.09;24.85;101634.72;4953668;28;20023;-73
2022/09/05 13:26:12;;;;;;;8.93;4.90;;;;;;;34.28;24.53;101628.50;4956641;28;20066;-72
2022/09/05 13:28:49;;;;;;;10.85;4.38;;;;;;;34.58;24.16;101626.13;4952424;29;20383;-73
2022/09/05 13:31:35;;;;;;;15.13;4.97;;;;;;;34.34;24.72;101626.31;4951736;29;20039;-72
2022/09/05 13:34:07;;;;;;;10.65;4.50;;;;;;;33.94;25.06;101613.31;4953263;29;20125;-72
2022/09/05 13:36:36;;;;;;;;;;;;;;;33.63;26.17;101610.41;4956767;28;20530;-73
2022/09/05 13:39:10;;;;;;;6.82;4.55;;;;;;;32.69;27.51;101610.59;4952048;29;19914;-73
2022/09/05 13:41:47;;;;;;;9.85;4.32;;;;;;;32.17;27.42;101606.44;4954893;28;20488;-74
2022/09/05 13:44:21;;;;;;;14.63;4.65;;;;;;;31.65;27.75;101614.38;4952144;29;20496;-74
2022/09/05 13:47:05;;;;;;;7.13;4.22;;;;;;;31.56;28.29;101613.66;4953277;28;20491;-72
2022/09/05 13:49:35;;;;;;;5.68;4.28;;;;;;;31.56;27.59;101597.88;4952808;29;20431;-73
2022/09/05 13:55:33;;;;;;;6.18;4.40;;;;;;;31.40;28.38;101592.13;4953583;28;20110;-73
2022/09/05 13:58:06;;;;;;;9.60;4.72;;;;;;;31.32;28.53;101581.94;4952007;29;20114;-73
2022/09/05 14:00:34;;;;;;;9.82;4.97;;;;;;;31.21;29.51;101594.53;4951324;29;20054;-72
2022/09/05 14:03:27;;;;;;;9.40;4.68;;;;;;;31.20;29.37;101586.59;4951808;29;20038;-72
2022/09/05 14:06:14;;;;;;;8.50;4.47;;;;;;;31.04;30.09;101586.34;4956111;28;20078;-73
2022/09/05 14:08:54;;;;;;;8.25;4.70;;;;;;;30.84;30.58;101582.38;4951935;29;20488;-71
2022/09/05 14:11:30;;;;;;;11.25;4.95;;;;;;;30.72;30.03;101585.88;4956084;28;20047;-71
2022/09/05 14:14:21;;;;;;;10.73;4.78;;;;;;;30.58;30.42;101592.72;4953179;28;20434;-71
2022/09/05 14:17:00;;;;;;;9.40;4.90;;;;;;;30.57;30.46;101582.81;4955882;28;20047;-73
2022/09/05 14:22:39;;;;;;;9.20;4.70;;;;;;;30.55;30.71;101571.28;4955664;28;20526;-73
2022/09/05 14:25:10;;;;;;;11.02;5.15;;;;;;;30.61;29.86;101573.56;4953186;28;20035;-72
2022/09/05 14:27:41;;;;;;;8.45;4.90;;;;;;;30.67;29.60;101571.44;4956468;28;20058;-72
2022/09/05 14:30:07;;;;;;;6.97;5.13;;;;;;;30.55;30.13;101566.56;4956331;28;20041;-72
2022/09/05 14:32:50;;;;;;;10.35;5.32;;;;;;;30.55;30.67;101563.00;4954822;29;20024;-72
2022/09/05 14:35:37;;;;;;;8.18;4.60;;;;;;;30.51;30.40;101557.34;4952112;29;20038;-71
2022/09/05 14:38:22;;;;;;;9.93;5.70;;;;;;;30.42;30.31;101557.38;4956068;28;20113;-73
2022/09/05 14:41:25;;;;;;;8.75;4.68;;;;;;;30.57;29.93;101560.72;4958766;28;20039;-71
2022/09/05 14:44:21;;;;;;;8.05;4.93;;;;;;;30.41;31.00;101553.00;4955939;28;20554;-73
2022/09/05 14:50:16;;;;;;;9.43;4.70;;;;;;;30.21;31.37;101539.91;4957910;28;20038;-72
2022/09/05 14:52:58;;;;;;;8.00;5.20;;;;;;;30.43;30.87;101538.88;4956190;28;20055;-72
2022/09/05 14:55:24;;;;;;;8.30;4.72;;;;;;;30.40;30.07;101534.03;4955801;28;20036;-73
2022/09/05 14:57:49;;;;;;;8.83;4.73;;;;;;;30.25;31.21;101529.84;4958617;28;20043;-72
2022/09/05 15:00:16;;;;;;;12.18;5.43;;;;;;;30.12;30.83;101534.44;4954281;28;20400;-73
2022/09/05 15:02:45;;;;;;;10.85;5.10;;;;;;;29.95;31.68;101539.97;4958633;28;20039;-74
2022/09/05 15:05:14;;;;;;;7.68;4.65;;;;;;;29.85;31.30;101532.03;4955760;28;20487;-74
2022/09/05 15:07:44;;;;;;;9.50;5.45;;;;;;;29.63;31.55;101533.03;4955597;28;20042;-72
2022/09/05 15:10:15;;;;;;;10.13;4.72;;;;;;;29.56;32.71;101524.47;4955632;28;20031;-75
2022/09/05 15:16:08;;;;;;;13.68;4.95;;;;;;;29.58;32.36;101514.72;4955875;28;20058;-74
2022/09/05 15:21:55;;;;;;;17.55;4.88;;;;;;;29.62;34.14;101509.38;4955773;29;20133;-76
2022/09/05 15:24:26;;;;;;;11.70;5.53;;;;;;;29.73;32.77;101518.09;4957477;28;20534;-77
2022/09/05 15:26:57;;;;;;;8.90;5.23;;;;;;;29.71;33.62;101515.66;4955418;28;20041;-80
2022/09/05 15:32:46;;;;;;;9.35;4.40;;;;;;;29.54;32.26;101518.47;4955945;28;20057;-77
2022/09/05 15:35:32;;;;;;;12.23;4.88;;;;;;;29.40;33.28;101523.28;4953902;29;20023;-76
2022/09/05 15:41:22;;;;;;;9.52;4.75;;;;;;;29.26;32.95;101516.00;4955586;28;20472;-75
2022/09/05 15:47:21;;;;;;;10.20;4.38;;;;;;;29.27;33.48;101517.63;4955486;29;20411;-75
2022/09/05 15:53:19;;;;;;;7.80;4.50;;;;;;;29.41;33.39;101516.66;4958252;28;20038;-75
2022/09/05 15:59:09;;;;;;;13.40;4.43;;;;;;;29.44;33.09;101516.00;4955008;28;20519;-74